createdAt,value
2022-08-05T00:00:34.066Z,100.00
2022-08-05T00:03:15.753Z,100.00
2022-08-05T00:06:05.692Z,100.00
2022-08-05T00:08:38.086Z,100.00
2022-08-05T00:11:30.362Z,100.00
2022-08-05T00:14:12.896Z,100.00
2022-08-05T00:16:52.836Z,100.00
2022-08-05T00:19:23.448Z,100.00
2022-08-05T00:21:58.985Z,100.00
2022-08-05T00:24:31.277Z,100.00
2022-08-05T00:27:10.416Z,100.00
2022-08-05T00:29:50.061Z,100.00
2022-08-05T00:32:22.968Z,100.00
2022-08-05T00:35:04.511Z,100.00
2022-08-05T00:37:53.414Z,100.00
2022-08-05T00:40:30.281Z,100.00
2022-08-05T00:43:07.489Z,100.00
2022-08-05T00:45:43.178Z,100.00
2022-08-05T00:48:31.293Z,100.00
2022-08-05T00:50:58.438Z,100.00
2022-08-05T00:54:00.031Z,100.00
2022-08-05T00:56:22.738Z,100.00
2022-08-05T00:58:56.131Z,100.00
2022-08-05T01:01:24.788Z,100.00
2022-08-05T01:04:19.939Z,100.00
2022-08-05T01:06:53.491Z,100.00
2022-08-05T01:09:28.982Z,100.00
2022-08-05T01:12:09.316Z,100.00
2022-08-05T01:15:05.967Z,100.00
2022-08-05T01:18:01.201Z,100.00
2022-08-05T01:20:43.968Z,100.00
2022-08-05T01:23:34.943Z,100.00
2022-08-05T01:26:16.968Z,100.00
2022-08-05T01:28:53.949Z,100.00
2022-08-05T01:31:45.387Z,100.00
2022-08-05T01:34:27.966Z,100.00
2022-08-05T01:37:01.114Z,100.00
2022-08-05T01:39:46.321Z,100.00
2022-08-05T01:42:17.546Z,100.00
2022-08-05T01:44:54.084Z,100.00
2022-08-05T01:47:24.512Z,100.00
2022-08-05T01:50:17.254Z,100.00
2022-08-05T01:52:49.920Z,100.00
2022-08-05T01:55:26.949Z,100.00
2022-08-05T01:58:12.868Z,100.00
2022-08-05T02:00:53.953Z,100.00
2022-08-05T02:03:34.155Z,100.00
2022-08-05T02:06:24.098Z,100.00
2022-08-05T02:09:00.001Z,100.00
2022-08-05T02:11:42.178Z,100.00
2022-08-05T02:14:21.946Z,100.00
2022-08-05T02:16:54.514Z,100.00
2022-08-05T02:19:41.409Z,100.00
2022-08-05T02:22:25.908Z,100.00
2022-08-05T02:25:07.963Z,100.00
2022-08-05T02:27:58.009Z,100.00
2022-08-05T02:30:34.496Z,100.00
2022-08-05T02:33:02.987Z,100.00
2022-08-05T02:35:38.099Z,100.00
2022-08-05T02:38:25.329Z,100.00
2022-08-05T02:41:14.704Z,100.00
2022-08-05T02:44:05.953Z,100.00
2022-08-05T02:46:58.803Z,100.00
2022-08-05T02:49:40.693Z,100.00
2022-08-05T02:52:11.612Z,100.00
2022-08-05T02:54:50.637Z,100.00
2022-08-05T02:58:09.833Z,100.00
2022-08-05T03:00:15.928Z,100.00
2022-08-05T03:02:46.727Z,100.00
2022-08-05T03:06:56.560Z,100.00
2022-08-05T03:08:16.970Z,100.00
2022-08-05T03:11:53.758Z,100.00
2022-08-05T03:13:52.119Z,100.00
2022-08-05T03:16:36.030Z,100.00
2022-08-05T03:19:12.810Z,100.00
2022-08-05T03:21:51.955Z,100.00
2022-08-05T03:24:23.674Z,100.00
2022-08-05T03:27:06.751Z,100.00
2022-08-05T03:30:07.496Z,100.00
2022-08-05T03:32:41.993Z,100.00
2022-08-05T03:35:09.800Z,100.00
2022-08-05T03:37:46.392Z,100.00
2022-08-05T03:40:24.199Z,100.00
2022-08-05T03:42:52.798Z,100.00
2022-08-05T03:45:26.934Z,100.00
2022-08-05T03:47:59.958Z,100.00
2022-08-05T03:50:42.292Z,100.00
2022-08-05T03:55:54.711Z,100.00
2022-08-05T03:56:36.951Z,100.00
2022-08-05T03:59:20.405Z,100.00
2022-08-05T04:01:51.159Z,100.00
2022-08-05T04:04:27.961Z,100.00
2022-08-05T04:06:56.116Z,100.00
2022-08-05T04:09:26.547Z,100.00
2022-08-05T04:12:00.915Z,100.00
2022-08-05T04:14:30.089Z,100.00
2022-08-05T04:17:05.955Z,100.00
2022-08-05T04:19:54.534Z,100.00
2022-08-05T04:22:25.338Z,100.00
2022-08-05T04:25:00.014Z,100.00
2022-08-05T04:27:43.844Z,100.00
2022-08-05T04:30:27.428Z,100.00
2022-08-05T04:33:01.951Z,100.00
2022-08-05T04:36:16.177Z,100.00
2022-08-05T04:38:21.920Z,100.00
2022-08-05T04:41:06.395Z,100.00
2022-08-05T04:43:48.023Z,100.00
2022-08-05T04:46:15.139Z,100.00
2022-08-05T04:49:01.945Z,100.00
2022-08-05T04:51:36.119Z,100.00
2022-08-05T04:54:12.177Z,100.00
2022-08-05T04:56:39.563Z,100.00
2022-08-05T04:59:21.886Z,100.00
2022-08-05T05:02:35.143Z,100.00
2022-08-05T05:05:02.365Z,100.00
2022-08-05T05:07:32.261Z,100.00
2022-08-05T05:10:06.930Z,100.00
2022-08-05T05:12:33.790Z,100.00
2022-08-05T05:15:04.696Z,100.00
2022-08-05T05:17:55.887Z,100.00
2022-08-05T05:20:30.953Z,100.00
2022-08-05T05:23:08.467Z,100.00
2022-08-05T05:25:53.115Z,100.00
2022-08-05T05:28:27.324Z,100.00
2022-08-05T05:31:02.480Z,100.00
2022-08-05T05:33:59.182Z,100.00
2022-08-05T05:36:29.793Z,100.00
2022-08-05T05:39:04.440Z,100.00
2022-08-05T05:41:40.810Z,100.00
2022-08-05T05:44:37.474Z,100.00
2022-08-05T05:47:04.610Z,100.00
2022-08-05T05:49:46.911Z,100.00
2022-08-05T05:52:26.322Z,100.00
2022-08-05T05:55:13.125Z,100.00
2022-08-05T05:57:52.734Z,100.00
2022-08-05T06:00:31.687Z,100.00
2022-08-05T06:03:03.066Z,100.00
2022-08-05T06:05:36.108Z,100.00
2022-08-05T06:08:03.869Z,100.00
2022-08-05T06:10:37.548Z,100.00
2022-08-05T06:13:15.923Z,100.00
2022-08-05T06:16:28.432Z,100.00
2022-08-05T06:18:39.367Z,100.00
2022-08-05T06:21:18.473Z,100.00
2022-08-05T06:23:45.631Z,100.00
2022-08-05T06:26:25.195Z,100.00
2022-08-05T06:28:52.026Z,100.00
2022-08-05T06:31:32.150Z,100.00
2022-08-05T06:34:12.936Z,100.00
2022-08-05T06:36:57.414Z,100.00
2022-08-05T06:39:32.983Z,100.00
2022-08-05T06:42:04.143Z,100.00
2022-08-05T06:44:37.929Z,100.00
2022-08-05T06:47:04.981Z,100.00
2022-08-05T06:50:01.853Z,100.00
2022-08-05T06:52:37.067Z,100.00
2022-08-05T06:55:12.316Z,100.00
2022-08-05T06:57:57.836Z,100.00
2022-08-05T07:00:37.936Z,100.00
2022-08-05T07:03:09.722Z,100.00
2022-08-05T07:05:42.932Z,100.00
2022-08-05T07:08:10.747Z,100.00
2022-08-05T07:10:53.483Z,100.00
2022-08-05T07:13:58.206Z,100.00
2022-08-05T07:18:01.975Z,100.00
2022-08-05T07:20:30.954Z,100.00
2022-08-05T07:22:35.513Z,100.00
2022-08-05T07:25:22.459Z,100.00
2022-08-05T07:28:05.711Z,100.00
2022-08-05T07:30:41.906Z,100.00
2022-08-05T07:33:36.890Z,100.00
2022-08-05T07:36:21.170Z,100.00
2022-08-05T07:38:49.192Z,100.00
2022-08-05T07:42:08.573Z,100.00
2022-08-05T07:44:18.949Z,100.00
2022-08-05T07:46:52.893Z,100.00
2022-08-05T07:49:20.757Z,100.00
2022-08-05T07:51:55.149Z,100.00
2022-08-05T07:54:31.510Z,100.00
2022-08-05T07:57:17.662Z,100.00
2022-08-05T07:59:55.636Z,100.00
2022-08-05T08:03:14.102Z,100.00
2022-08-05T08:05:26.924Z,100.00
2022-08-05T08:08:01.952Z,100.00
2022-08-05T08:10:35.900Z,97.94
2022-08-05T08:13:11.498Z,97.15
2022-08-05T08:16:34.608Z,98.79
2022-08-05T08:18:37.906Z,100.00
2022-08-05T08:21:09.742Z,97.75
2022-08-05T08:24:03.939Z,97.12
2022-08-05T08:26:38.894Z,97.91
2022-08-05T08:29:45.538Z,98.65
2022-08-05T08:32:14.909Z,94.26
2022-08-05T08:34:51.921Z,94.95
2022-08-05T08:37:21.077Z,94.23
2022-08-05T08:40:00.971Z,93.39
2022-08-05T08:42:46.795Z,91.36
2022-08-05T08:45:29.895Z,92.97
2022-08-05T08:48:12.922Z,96.74
2022-08-05T08:51:07.733Z,98.73
2022-08-05T08:53:49.933Z,99.17
2022-08-05T08:56:17.359Z,91.74
2022-08-05T08:58:51.905Z,92.50
2022-08-05T09:01:20.182Z,93.74
2022-08-05T09:03:58.911Z,86.75
2022-08-05T09:06:36.284Z,83.61
2022-08-05T09:09:09.923Z,81.37
2022-08-05T09:11:50.706Z,76.03
2022-08-05T09:14:57.811Z,72.21
2022-08-05T09:17:40.967Z,75.29
2022-08-05T09:20:21.045Z,77.00
2022-08-05T09:23:18.746Z,83.95
2022-08-05T09:26:20.460Z,85.99
2022-08-05T09:28:48.184Z,85.10
2022-08-05T09:32:41.685Z,83.75
2022-08-05T09:34:26.096Z,85.25
2022-08-05T09:36:55.403Z,86.13
2022-08-05T09:39:41.298Z,88.72
2022-08-05T09:42:28.293Z,87.99
2022-08-05T09:45:17.881Z,87.54
2022-08-05T09:47:57.542Z,87.42
2022-08-05T09:50:44.486Z,85.67
2022-08-05T09:53:22.670Z,85.17
2022-08-05T09:56:12.932Z,83.52
2022-08-05T09:58:47.453Z,82.46
2022-08-05T10:01:22.495Z,81.62
2022-08-05T10:04:11.090Z,79.12
2022-08-05T10:06:40.673Z,78.98
2022-08-05T10:09:28.303Z,79.42
2022-08-05T10:12:18.466Z,75.41
2022-08-05T10:15:17.032Z,76.83
2022-08-05T10:18:28.912Z,76.45
2022-08-05T10:21:06.337Z,79.10
2022-08-05T10:23:59.074Z,76.00
2022-08-05T10:26:32.424Z,78.21
2022-08-05T10:29:07.913Z,78.78
2022-08-05T10:32:53.220Z,74.68
2022-08-05T10:34:42.031Z,75.44
2022-08-05T10:37:17.909Z,73.59
2022-08-05T10:39:59.048Z,75.17
2022-08-05T10:42:43.664Z,72.60
2022-08-05T10:45:23.633Z,75.74
2022-08-05T10:48:30.055Z,76.20
2022-08-05T10:51:22.210Z,77.13
2022-08-05T10:54:05.995Z,79.52
2022-08-05T10:56:57.645Z,76.72
2022-08-05T11:00:04.212Z,78.93
2022-08-05T11:02:34.645Z,76.16
2022-08-05T11:05:18.315Z,76.93
2022-08-05T11:08:21.710Z,75.47
2022-08-05T11:11:02.251Z,76.65
2022-08-05T11:13:57.720Z,74.90
2022-08-05T11:16:33.786Z,72.87
2022-08-05T11:20:16.515Z,75.04
2022-08-05T11:22:53.662Z,74.17
2022-08-05T11:26:05.697Z,74.64
2022-08-05T11:28:31.895Z,76.75
2022-08-05T11:31:57.291Z,73.64
2022-08-05T11:34:14.711Z,75.20
2022-08-05T11:36:57.917Z,71.98
2022-08-05T11:40:02.796Z,71.60
2022-08-05T11:42:38.009Z,74.60
2022-08-05T11:46:14.662Z,74.81
2022-08-05T11:48:15.903Z,75.16
2022-08-05T11:50:43.401Z,72.83
2022-08-05T11:53:18.873Z,71.68
2022-08-05T11:56:11.380Z,72.02
2022-08-05T11:58:41.319Z,73.15
2022-08-05T12:01:28.921Z,76.56
2022-08-05T12:03:57.354Z,72.82
2022-08-05T12:06:26.122Z,68.85
2022-08-05T12:09:01.898Z,71.16
2022-08-05T12:11:40.350Z,69.10
2022-08-05T12:14:16.896Z,67.70
2022-08-05T12:16:47.568Z,67.07
2022-08-05T12:20:27.062Z,67.63
2022-08-05T12:22:10.153Z,68.98
2022-08-05T12:24:49.397Z,69.56
2022-08-05T12:27:25.368Z,67.98
2022-08-05T12:30:15.363Z,64.04
2022-08-05T12:32:53.846Z,66.41
2022-08-05T12:35:39.643Z,65.18
2022-08-05T12:38:10.922Z,61.62
2022-08-05T12:40:44.266Z,63.83
2022-08-05T12:43:11.756Z,64.26
2022-08-05T12:45:59.081Z,64.64
2022-08-05T12:48:32.549Z,60.65
2022-08-05T12:52:12.981Z,59.96
2022-08-05T12:54:32.986Z,60.02
2022-08-05T12:57:09.247Z,59.08
2022-08-05T13:01:57.258Z,57.79
2022-08-05T13:02:55.677Z,59.83
2022-08-05T13:05:24.455Z,56.36
2022-08-05T13:08:11.918Z,55.75
2022-08-05T13:10:50.621Z,51.96
2022-08-05T13:14:04.813Z,53.71
2022-08-05T13:16:16.849Z,48.69
2022-08-05T13:19:01.874Z,48.04
2022-08-05T13:21:37.881Z,47.98
2022-08-05T13:24:36.323Z,49.45
2022-08-05T13:27:11.158Z,45.35
2022-08-05T13:30:35.313Z,47.58
2022-08-05T13:32:50.539Z,43.34
2022-08-05T13:35:42.784Z,43.10
2022-08-05T13:38:28.338Z,46.10
2022-08-05T13:41:06.945Z,42.42
2022-08-05T13:43:44.272Z,42.54
2022-08-05T13:46:43.943Z,42.34
2022-08-05T13:49:13.696Z,41.45
2022-08-05T13:51:51.588Z,41.15
2022-08-05T13:54:21.001Z,41.20
2022-08-05T13:56:58.932Z,40.90
2022-08-05T13:59:27.184Z,40.27
2022-08-05T14:02:06.872Z,39.94
2022-08-05T14:05:03.842Z,40.47
2022-08-05T14:08:01.176Z,40.89
2022-08-05T14:10:28.739Z,40.90
2022-08-05T14:13:03.896Z,39.24
2022-08-05T14:16:05.185Z,39.68
2022-08-05T14:18:31.936Z,43.60
2022-08-05T14:20:58.803Z,40.92
2022-08-05T14:23:37.197Z,40.41
2022-08-05T14:26:04.968Z,40.92
2022-08-05T14:28:52.341Z,40.89
2022-08-05T14:32:03.251Z,41.36
2022-08-05T14:34:35.528Z,41.23
2022-08-05T14:37:04.950Z,40.94
2022-08-05T14:39:49.907Z,45.19
2022-08-05T14:42:25.896Z,44.10
2022-08-05T14:44:58.895Z,43.68
2022-08-05T14:48:03.774Z,41.55
2022-08-05T14:50:19.889Z,41.49
2022-08-05T14:52:58.445Z,42.30
2022-08-05T14:55:38.683Z,42.45
2022-08-05T14:58:14.166Z,43.83
2022-08-05T15:00:58.374Z,43.81
2022-08-05T15:03:39.105Z,39.79
2022-08-05T15:06:14.967Z,40.80
2022-08-05T15:09:01.108Z,40.21
2022-08-05T15:11:51.006Z,42.55
2022-08-05T15:14:34.963Z,43.07
2022-08-05T15:17:45.109Z,41.10
2022-08-05T15:20:05.903Z,42.08
2022-08-05T15:22:32.750Z,42.29
2022-08-05T15:25:13.834Z,41.27
2022-08-05T15:27:42.966Z,43.31
2022-08-05T15:30:25.940Z,43.64
2022-08-05T15:32:59.025Z,42.84
2022-08-05T15:35:45.306Z,43.07
2022-08-05T15:38:35.635Z,44.14
2022-08-05T15:41:22.782Z,43.71
2022-08-05T15:43:55.068Z,45.58
2022-08-05T15:46:29.882Z,47.23
2022-08-05T15:48:58.907Z,47.57
2022-08-05T15:52:13.996Z,48.35
2022-08-05T15:54:37.461Z,50.45
2022-08-05T15:57:10.900Z,51.11
2022-08-05T15:59:39.755Z,52.48
2022-08-05T16:02:25.246Z,53.78
2022-08-05T16:04:52.985Z,54.38
2022-08-05T16:07:29.607Z,54.82
2022-08-05T16:09:56.636Z,55.29
2022-08-05T16:12:29.902Z,55.79
2022-08-05T16:15:03.923Z,55.84
2022-08-05T16:17:36.892Z,56.43
2022-08-05T16:20:11.818Z,57.22
2022-08-05T16:22:39.068Z,59.00
2022-08-05T16:25:16.877Z,58.08
2022-08-05T16:27:59.677Z,57.79
2022-08-05T16:30:37.905Z,59.93
2022-08-05T16:33:18.881Z,59.18
2022-08-05T16:35:52.426Z,58.77
2022-08-05T16:38:28.137Z,57.96
2022-08-05T16:42:12.238Z,59.39
2022-08-05T16:43:56.150Z,59.54
2022-08-05T16:46:29.869Z,60.12
2022-08-05T16:49:04.902Z,60.45
2022-08-05T16:51:50.266Z,60.68
2022-08-05T16:54:30.340Z,60.89
2022-08-05T16:56:59.799Z,62.79
2022-08-05T16:59:32.887Z,61.44
2022-08-05T17:02:19.763Z,61.57
2022-08-05T17:04:53.885Z,62.51
2022-08-05T17:07:38.881Z,62.51
2022-08-05T17:10:12.881Z,62.87
2022-08-05T17:12:50.966Z,64.38
2022-08-05T17:15:48.615Z,64.48
2022-08-05T17:18:24.989Z,61.09
2022-08-05T17:20:58.897Z,60.93
2022-08-05T17:24:05.229Z,61.98
2022-08-05T17:26:18.862Z,62.84
2022-08-05T17:28:47.396Z,61.71
2022-08-05T17:31:24.772Z,61.09
2022-08-05T17:34:18.048Z,59.78
2022-08-05T17:36:51.924Z,60.28
2022-08-05T17:39:34.357Z,59.95
2022-08-05T17:42:18.159Z,60.84
2022-08-05T17:44:50.825Z,61.37
2022-08-05T17:47:28.905Z,61.84
2022-08-05T17:50:03.577Z,62.49
2022-08-05T17:52:53.044Z,63.19
2022-08-05T17:55:37.479Z,64.37
2022-08-05T17:58:14.594Z,65.65
2022-08-05T18:00:47.020Z,66.42
2022-08-05T18:03:58.642Z,66.89
2022-08-05T18:06:18.893Z,68.87
2022-08-05T18:08:59.350Z,69.27
2022-08-05T18:11:33.987Z,70.03
2022-08-05T18:14:03.305Z,71.17
2022-08-05T18:16:51.421Z,71.96
2022-08-05T18:19:26.162Z,73.15
2022-08-05T18:22:08.567Z,75.12
2022-08-05T18:24:44.880Z,75.69
2022-08-05T18:27:18.834Z,77.26
2022-08-05T18:29:51.923Z,78.72
2022-08-05T18:32:35.157Z,78.53
2022-08-05T18:35:12.379Z,79.01
2022-08-05T18:37:45.872Z,79.32
2022-08-05T18:41:50.474Z,79.33
2022-08-05T18:43:09.037Z,80.50
2022-08-05T18:45:50.899Z,80.58
2022-08-05T18:48:31.204Z,80.49
2022-08-05T18:52:05.715Z,82.20
2022-08-05T18:54:12.573Z,82.91
2022-08-05T18:56:51.057Z,82.99
2022-08-05T18:59:43.267Z,84.03
2022-08-05T19:02:28.210Z,83.57
2022-08-05T19:05:02.965Z,83.49
2022-08-05T19:07:53.895Z,83.32
2022-08-05T19:10:26.788Z,82.59
2022-08-05T19:13:02.877Z,82.21
2022-08-05T19:15:59.790Z,81.91
2022-08-05T19:18:23.914Z,80.73
2022-08-05T19:21:01.883Z,79.90
2022-08-05T19:24:06.877Z,78.75
2022-08-05T19:27:00.765Z,76.96
2022-08-05T19:29:36.280Z,75.57
2022-08-05T19:32:13.920Z,74.82
2022-08-05T19:34:56.923Z,73.95
2022-08-05T19:37:30.066Z,73.55
2022-08-05T19:40:18.908Z,71.79
2022-08-05T19:43:04.877Z,71.93
2022-08-05T19:45:38.897Z,72.68
2022-08-05T19:48:21.281Z,72.73
2022-08-05T19:50:54.883Z,72.12
2022-08-05T19:54:04.467Z,73.70
2022-08-05T19:56:29.939Z,73.42
2022-08-05T19:59:45.562Z,75.18
2022-08-05T20:01:54.886Z,76.09
2022-08-05T20:04:27.924Z,76.35
2022-08-05T20:06:54.970Z,76.27
2022-08-05T20:09:28.909Z,76.41
2022-08-05T20:12:15.656Z,76.99
2022-08-05T20:14:48.869Z,77.62
2022-08-05T20:17:18.935Z,77.00
2022-08-05T20:19:57.048Z,77.98
2022-08-05T20:22:27.225Z,76.57
2022-08-05T20:25:01.877Z,77.54
2022-08-05T20:27:41.574Z,78.82
2022-08-05T20:30:18.230Z,79.72
2022-08-05T20:32:53.718Z,80.39
2022-08-05T20:35:26.918Z,83.13
2022-08-05T20:38:08.121Z,84.77
2022-08-05T20:40:43.088Z,87.55
2022-08-05T20:43:10.712Z,89.57
2022-08-05T20:45:56.189Z,90.94
2022-08-05T20:48:30.906Z,88.53
2022-08-05T20:50:57.792Z,88.30
2022-08-05T20:53:36.576Z,88.79
2022-08-05T20:56:11.886Z,88.38
2022-08-05T20:58:45.893Z,89.11
2022-08-05T21:01:13.283Z,91.43
2022-08-05T21:03:40.206Z,93.69
2022-08-05T21:06:28.434Z,89.87
2022-08-05T21:09:01.870Z,89.68
2022-08-05T21:12:06.588Z,90.13
2022-08-05T21:14:21.888Z,91.09
2022-08-05T21:16:53.485Z,91.60
2022-08-05T21:19:27.040Z,92.71
2022-08-05T21:21:55.308Z,91.67
2022-08-05T21:24:28.896Z,90.19
2022-08-05T21:26:58.790Z,91.53
2022-08-05T21:29:40.503Z,90.68
2022-08-05T21:32:17.064Z,88.68
2022-08-05T21:35:08.990Z,82.17
2022-08-05T21:37:53.138Z,79.88
2022-08-05T21:40:28.853Z,79.28
2022-08-05T21:42:59.259Z,78.64
2022-08-05T21:45:56.277Z,77.75
2022-08-05T21:48:19.809Z,78.24
2022-08-05T21:50:54.275Z,80.22
2022-08-05T21:53:21.768Z,81.65
2022-08-05T21:56:09.754Z,83.57
2022-08-05T21:58:57.761Z,79.01
2022-08-05T22:01:26.141Z,78.05
2022-08-05T22:03:59.867Z,75.17
2022-08-05T22:06:34.805Z,75.25
2022-08-05T22:09:13.971Z,75.25
2022-08-05T22:11:49.875Z,76.14
2022-08-05T22:14:34.553Z,77.57
2022-08-05T22:17:11.858Z,79.74
2022-08-05T22:20:03.386Z,79.81
2022-08-05T22:22:33.021Z,80.97
2022-08-05T22:25:27.365Z,82.81
2022-08-05T22:28:11.079Z,82.91
2022-08-05T22:30:56.094Z,81.51
2022-08-05T22:33:56.594Z,79.33
2022-08-05T22:36:26.868Z,80.00
2022-08-05T22:38:53.934Z,84.75
2022-08-05T22:42:09.647Z,92.07
2022-08-05T22:44:14.759Z,93.92
2022-08-05T22:46:51.869Z,92.25
2022-08-05T22:50:17.562Z,85.04
2022-08-05T22:52:22.951Z,75.31
2022-08-05T22:54:58.521Z,77.97
2022-08-05T22:57:36.263Z,81.99
2022-08-05T23:00:04.322Z,82.13
2022-08-05T23:02:38.200Z,80.63
2022-08-05T23:05:21.884Z,82.11
2022-08-05T23:07:50.281Z,85.40
2022-08-05T23:10:24.390Z,86.22
2022-08-05T23:12:54.645Z,87.48
2022-08-05T23:15:29.372Z,88.14
2022-08-05T23:18:03.192Z,87.32
2022-08-05T23:20:37.858Z,89.08
2022-08-05T23:23:11.878Z,89.93
2022-08-05T23:25:51.365Z,88.81
2022-08-05T23:28:29.168Z,90.78
2022-08-05T23:31:16.706Z,90.19
2022-08-05T23:34:03.908Z,90.89
2022-08-05T23:36:44.670Z,91.15
2022-08-05T23:39:17.278Z,92.05
2022-08-05T23:41:56.944Z,93.75
2022-08-05T23:44:25.204Z,95.48
2022-08-05T23:47:14.657Z,97.48
2022-08-05T23:49:43.529Z,98.07
2022-08-05T23:52:50.144Z,98.05
2022-08-05T23:55:18.479Z,99.39
2022-08-05T23:57:52.882Z,100.00
